sensor_id;sensor_type;location;lat;lon;timestamp;temperature;humidity
5588;DHT22;2816;49.778;9.986;2023-06-24T00:00:22;17.10;99.90
5588;DHT22;2816;49.778;9.986;2023-06-24T00:02:49;17.10;99.90
5588;DHT22;2816;49.778;9.986;2023-06-24T00:05:16;17.10;99.90
5588;DHT22;2816;49.778;9.986;2023-06-24T00:07:43;17.00;99.90
5588;DHT22;2816;49.778;9.986;2023-06-24T00:10:12;17.00;99.90
5588;DHT22;2816;49.778;9.986;2023-06-24T00:12:39;17.00;99.90
5588;DHT22;2816;49.778;9.986;2023-06-24T00:15:07;17.00;99.90
5588;DHT22;2816;49.778;9.986;2023-06-24T00:17:35;16.90;99.90
5588;DHT22;2816;49.778;9.986;2023-06-24T00:20:02;16.90;99.90
5588;DHT22;2816;49.778;9.986;2023-06-24T00:22:33;16.80;99.90
5588;DHT22;2816;49.778;9.986;2023-06-24T00:24:59;16.80;99.90
5588;DHT22;2816;49.778;9.986;2023-06-24T00:27:28;16.70;99.90
5588;DHT22;2816;49.778;9.986;2023-06-24T00:29:55;16.70;99.90
5588;DHT22;2816;49.778;9.986;2023-06-24T00:32:22;16.60;99.90
5588;DHT22;2816;49.778;9.986;2023-06-24T00:34:49;16.60;99.90
5588;DHT22;2816;49.778;9.986;2023-06-24T00:37:16;16.60;99.90
5588;DHT22;2816;49.778;9.986;2023-06-24T00:39:43;16.60;99.90
5588;DHT22;2816;49.778;9.986;2023-06-24T00:42:10;16.50;99.90
5588;DHT22;2816;49.778;9.986;2023-06-24T00:44:38;16.50;99.90
5588;DHT22;2816;49.778;9.986;2023-06-24T00:47:06;16.50;99.90
5588;DHT22;2816;49.778;9.986;2023-06-24T00:49:35;16.50;99.90
5588;DHT22;2816;49.778;9.986;2023-06-24T00:52:03;16.50;99.90
5588;DHT22;2816;49.778;9.986;2023-06-24T00:54:30;16.40;99.90
5588;DHT22;2816;49.778;9.986;2023-06-24T00:56:58;16.40;99.90
5588;DHT22;2816;49.778;9.986;2023-06-24T00:59:27;16.40;99.90
5588;DHT22;2816;49.778;9.986;2023-06-24T01:01:59;16.40;99.90
5588;DHT22;2816;49.778;9.986;2023-06-24T01:04:30;16.40;99.90
5588;DHT22;2816;49.778;9.986;2023-06-24T01:06:59;16.40;99.90
5588;DHT22;2816;49.778;9.986;2023-06-24T01:09:26;16.30;99.90
5588;DHT22;2816;49.778;9.986;2023-06-24T01:11:54;16.30;99.90
5588;DHT22;2816;49.778;9.986;2023-06-24T01:14:21;16.30;99.90
5588;DHT22;2816;49.778;9.986;2023-06-24T01:16:55;16.30;99.90
5588;DHT22;2816;49.778;9.986;2023-06-24T01:19:37;16.20;99.90
5588;DHT22;2816;49.778;9.986;2023-06-24T01:22:24;16.20;99.90
5588;DHT22;2816;49.778;9.986;2023-06-24T01:25:04;16.20;99.90
5588;DHT22;2816;49.778;9.986;2023-06-24T01:28:02;16.20;99.90
5588;DHT22;2816;49.778;9.986;2023-06-24T01:30:54;16.20;99.90
5588;DHT22;2816;49.778;9.986;2023-06-24T01:33:26;16.10;99.90
5588;DHT22;2816;49.778;9.986;2023-06-24T01:35:58;16.10;99.90
5588;DHT22;2816;49.778;9.986;2023-06-24T01:38:31;16.10;99.90
5588;DHT22;2816;49.778;9.986;2023-06-24T01:41:03;16.00;99.90
5588;DHT22;2816;49.778;9.986;2023-06-24T01:43:31;16.00;99.90
5588;DHT22;2816;49.778;9.986;2023-06-24T01:45:59;15.90;99.90
5588;DHT22;2816;49.778;9.986;2023-06-24T01:48:28;15.90;99.90
5588;DHT22;2816;49.778;9.986;2023-06-24T01:51:01;15.90;99.90
5588;DHT22;2816;49.778;9.986;2023-06-24T01:53:33;15.90;99.90
5588;DHT22;2816;49.778;9.986;2023-06-24T01:56:02;15.80;99.90
5588;DHT22;2816;49.778;9.986;2023-06-24T01:58:31;15.80;99.90
5588;DHT22;2816;49.778;9.986;2023-06-24T02:01:01;15.80;99.90
5588;DHT22;2816;49.778;9.986;2023-06-24T02:03:31;15.70;99.90
5588;DHT22;2816;49.778;9.986;2023-06-24T02:05:59;15.70;99.90
5588;DHT22;2816;49.778;9.986;2023-06-24T02:08:31;15.70;99.90
5588;DHT22;2816;49.778;9.986;2023-06-24T02:11:00;15.60;99.90
5588;DHT22;2816;49.778;9.986;2023-06-24T02:13:28;15.60;99.90
5588;DHT22;2816;49.778;9.986;2023-06-24T02:15:59;15.60;99.90
5588;DHT22;2816;49.778;9.986;2023-06-24T02:18:29;15.60;99.90
5588;DHT22;2816;49.778;9.986;2023-06-24T02:20:57;15.60;99.90
5588;DHT22;2816;49.778;9.986;2023-06-24T02:23:26;15.60;99.90
5588;DHT22;2816;49.778;9.986;2023-06-24T02:25:54;15.60;99.90
5588;DHT22;2816;49.778;9.986;2023-06-24T02:28:22;15.60;99.90
5588;DHT22;2816;49.778;9.986;2023-06-24T02:30:49;15.50;99.90
5588;DHT22;2816;49.778;9.986;2023-06-24T02:33:16;15.50;99.90
5588;DHT22;2816;49.778;9.986;2023-06-24T02:35:45;15.50;99.90
5588;DHT22;2816;49.778;9.986;2023-06-24T02:38:12;15.50;99.90
5588;DHT22;2816;49.778;9.986;2023-06-24T02:40:39;15.50;99.90
5588;DHT22;2816;49.778;9.986;2023-06-24T02:43:06;15.50;99.90
5588;DHT22;2816;49.778;9.986;2023-06-24T02:45:33;15.40;99.90
5588;DHT22;2816;49.778;9.986;2023-06-24T02:48:00;15.40;99.90
5588;DHT22;2816;49.778;9.986;2023-06-24T02:50:28;15.40;99.90
5588;DHT22;2816;49.778;9.986;2023-06-24T02:52:57;15.30;99.90
5588;DHT22;2816;49.778;9.986;2023-06-24T02:55:24;15.30;99.90
5588;DHT22;2816;49.778;9.986;2023-06-24T02:57:51;15.30;99.90
5588;DHT22;2816;49.778;9.986;2023-06-24T03:00:19;15.30;99.90
5588;DHT22;2816;49.778;9.986;2023-06-24T03:02:47;15.30;99.90
5588;DHT22;2816;49.778;9.986;2023-06-24T03:05:15;15.30;99.90
5588;DHT22;2816;49.778;9.986;2023-06-24T03:07:44;15.30;99.90
5588;DHT22;2816;49.778;9.986;2023-06-24T03:10:12;15.20;99.90
5588;DHT22;2816;49.778;9.986;2023-06-24T03:12:40;15.20;99.90
5588;DHT22;2816;49.778;9.986;2023-06-24T03:15:08;15.20;99.90
5588;DHT22;2816;49.778;9.986;2023-06-24T03:17:35;15.20;99.90
5588;DHT22;2816;49.778;9.986;2023-06-24T03:20:02;15.10;99.90
5588;DHT22;2816;49.778;9.986;2023-06-24T03:22:30;15.10;99.90
5588;DHT22;2816;49.778;9.986;2023-06-24T03:24:57;15.10;99.90
5588;DHT22;2816;49.778;9.986;2023-06-24T03:27:25;15.10;99.90
5588;DHT22;2816;49.778;9.986;2023-06-24T03:29:52;15.10;99.90
5588;DHT22;2816;49.778;9.986;2023-06-24T03:32:19;15.10;99.90
5588;DHT22;2816;49.778;9.986;2023-06-24T03:34:46;15.10;99.90
5588;DHT22;2816;49.778;9.986;2023-06-24T03:37:13;15.10;99.90
5588;DHT22;2816;49.778;9.986;2023-06-24T03:39:40;15.10;99.90
5588;DHT22;2816;49.778;9.986;2023-06-24T03:42:07;15.10;99.90
5588;DHT22;2816;49.778;9.986;2023-06-24T03:44:35;15.10;99.90
5588;DHT22;2816;49.778;9.986;2023-06-24T03:47:02;15.10;99.90
5588;DHT22;2816;49.778;9.986;2023-06-24T03:49:29;15.10;99.90
5588;DHT22;2816;49.778;9.986;2023-06-24T03:51:56;15.10;99.90
5588;DHT22;2816;49.778;9.986;2023-06-24T03:54:23;15.00;99.90
5588;DHT22;2816;49.778;9.986;2023-06-24T03:56:50;15.10;99.90
5588;DHT22;2816;49.778;9.986;2023-06-24T03:59:17;15.00;99.90
5588;DHT22;2816;49.778;9.986;2023-06-24T04:01:45;15.00;99.90
5588;DHT22;2816;49.778;9.986;2023-06-24T04:04:12;15.00;99.90
5588;DHT22;2816;49.778;9.986;2023-06-24T04:06:39;15.00;99.90
5588;DHT22;2816;49.778;9.986;2023-06-24T04:09:06;15.00;99.90
5588;DHT22;2816;49.778;9.986;2023-06-24T04:11:35;15.00;99.90
5588;DHT22;2816;49.778;9.986;2023-06-24T04:14:02;15.00;99.90
5588;DHT22;2816;49.778;9.986;2023-06-24T04:16:32;15.00;99.90
5588;DHT22;2816;49.778;9.986;2023-06-24T04:19:00;15.10;99.90
5588;DHT22;2816;49.778;9.986;2023-06-24T04:21:27;15.10;99.90
5588;DHT22;2816;49.778;9.986;2023-06-24T04:23:54;15.10;99.90
5588;DHT22;2816;49.778;9.986;2023-06-24T04:26:21;15.10;99.90
5588;DHT22;2816;49.778;9.986;2023-06-24T04:28:48;15.20;99.90
5588;DHT22;2816;49.778;9.986;2023-06-24T04:31:15;15.20;99.90
5588;DHT22;2816;49.778;9.986;2023-06-24T04:33:42;15.10;99.90
5588;DHT22;2816;49.778;9.986;2023-06-24T04:36:10;15.20;99.90
5588;DHT22;2816;49.778;9.986;2023-06-24T04:38:37;15.30;99.90
5588;DHT22;2816;49.778;9.986;2023-06-24T04:41:04;15.30;99.90
5588;DHT22;2816;49.778;9.986;2023-06-24T04:43:31;15.30;99.90
5588;DHT22;2816;49.778;9.986;2023-06-24T04:45:58;15.30;99.90
5588;DHT22;2816;49.778;9.986;2023-06-24T04:48:24;15.30;99.90
5588;DHT22;2816;49.778;9.986;2023-06-24T04:50:51;15.30;99.90
5588;DHT22;2816;49.778;9.986;2023-06-24T04:53:21;15.30;99.90
5588;DHT22;2816;49.778;9.986;2023-06-24T04:55:48;15.30;99.90
5588;DHT22;2816;49.778;9.986;2023-06-24T04:58:15;15.30;99.90
5588;DHT22;2816;49.778;9.986;2023-06-24T05:00:43;15.30;99.90
5588;DHT22;2816;49.778;9.986;2023-06-24T05:03:10;15.40;99.90
5588;DHT22;2816;49.778;9.986;2023-06-24T05:05:36;15.40;99.90
5588;DHT22;2816;49.778;9.986;2023-06-24T05:08:04;15.40;99.90
5588;DHT22;2816;49.778;9.986;2023-06-24T05:10:32;15.50;99.90
5588;DHT22;2816;49.778;9.986;2023-06-24T05:12:59;15.50;99.90
5588;DHT22;2816;49.778;9.986;2023-06-24T05:15:26;15.60;99.90
5588;DHT22;2816;49.778;9.986;2023-06-24T05:17:53;15.60;99.90
5588;DHT22;2816;49.778;9.986;2023-06-24T05:20:20;15.70;99.90
5588;DHT22;2816;49.778;9.986;2023-06-24T05:22:47;15.70;99.90
5588;DHT22;2816;49.778;9.986;2023-06-24T05:25:13;15.80;99.90
5588;DHT22;2816;49.778;9.986;2023-06-24T05:27:42;15.80;99.90
5588;DHT22;2816;49.778;9.986;2023-06-24T05:30:10;15.90;99.90
5588;DHT22;2816;49.778;9.986;2023-06-24T05:32:38;15.90;99.90
5588;DHT22;2816;49.778;9.986;2023-06-24T05:35:06;15.90;99.90
5588;DHT22;2816;49.778;9.986;2023-06-24T05:37:33;16.00;99.90
5588;DHT22;2816;49.778;9.986;2023-06-24T05:40:00;16.00;99.90
5588;DHT22;2816;49.778;9.986;2023-06-24T05:42:28;16.10;99.90
5588;DHT22;2816;49.778;9.986;2023-06-24T05:44:56;16.10;99.90
5588;DHT22;2816;49.778;9.986;2023-06-24T05:47:23;16.10;99.90
5588;DHT22;2816;49.778;9.986;2023-06-24T05:49:50;16.20;99.90
5588;DHT22;2816;49.778;9.986;2023-06-24T05:52:16;16.30;99.90
5588;DHT22;2816;49.778;9.986;2023-06-24T05:54:43;16.40;99.90
5588;DHT22;2816;49.778;9.986;2023-06-24T05:57:10;16.50;99.90
5588;DHT22;2816;49.778;9.986;2023-06-24T05:59:37;16.60;99.90
5588;DHT22;2816;49.778;9.986;2023-06-24T06:02:06;16.60;99.90
5588;DHT22;2816;49.778;9.986;2023-06-24T06:04:33;16.70;99.90
5588;DHT22;2816;49.778;9.986;2023-06-24T06:06:59;16.70;99.90
5588;DHT22;2816;49.778;9.986;2023-06-24T06:09:26;16.70;99.90
5588;DHT22;2816;49.778;9.986;2023-06-24T06:11:53;16.80;99.90
5588;DHT22;2816;49.778;9.986;2023-06-24T06:14:20;16.80;99.90
5588;DHT22;2816;49.778;9.986;2023-06-24T06:16:47;16.90;99.90
5588;DHT22;2816;49.778;9.986;2023-06-24T06:19:15;17.10;99.90
5588;DHT22;2816;49.778;9.986;2023-06-24T06:21:42;17.10;99.90
5588;DHT22;2816;49.778;9.986;2023-06-24T06:24:09;17.20;99.90
5588;DHT22;2816;49.778;9.986;2023-06-24T06:26:41;17.30;99.90
5588;DHT22;2816;49.778;9.986;2023-06-24T06:29:08;17.40;99.90
5588;DHT22;2816;49.778;9.986;2023-06-24T06:31:35;17.50;99.90
5588;DHT22;2816;49.778;9.986;2023-06-24T06:34:03;17.50;99.90
5588;DHT22;2816;49.778;9.986;2023-06-24T06:36:32;17.60;99.90
5588;DHT22;2816;49.778;9.986;2023-06-24T06:38:59;17.70;99.90
5588;DHT22;2816;49.778;9.986;2023-06-24T06:41:26;17.80;99.90
5588;DHT22;2816;49.778;9.986;2023-06-24T06:43:53;17.90;99.90
5588;DHT22;2816;49.778;9.986;2023-06-24T06:46:20;18.00;99.90
5588;DHT22;2816;49.778;9.986;2023-06-24T06:48:47;18.00;99.90
5588;DHT22;2816;49.778;9.986;2023-06-24T06:51:14;18.10;99.90
5588;DHT22;2816;49.778;9.986;2023-06-24T06:53:42;18.10;99.90
5588;DHT22;2816;49.778;9.986;2023-06-24T06:56:16;18.20;99.90
5588;DHT22;2816;49.778;9.986;2023-06-24T06:58:43;18.30;99.90
5588;DHT22;2816;49.778;9.986;2023-06-24T07:01:10;18.40;99.90
5588;DHT22;2816;49.778;9.986;2023-06-24T07:03:37;18.40;99.90
5588;DHT22;2816;49.778;9.986;2023-06-24T07:06:04;18.40;99.90
5588;DHT22;2816;49.778;9.986;2023-06-24T07:08:31;18.50;99.90
5588;DHT22;2816;49.778;9.986;2023-06-24T07:10:59;18.70;99.90
5588;DHT22;2816;49.778;9.986;2023-06-24T07:13:26;18.90;99.90
5588;DHT22;2816;49.778;9.986;2023-06-24T07:15:53;18.90;99.90
5588;DHT22;2816;49.778;9.986;2023-06-24T07:18:20;19.00;99.90
5588;DHT22;2816;49.778;9.986;2023-06-24T07:20:47;19.10;99.90
5588;DHT22;2816;49.778;9.986;2023-06-24T07:23:14;19.20;99.90
5588;DHT22;2816;49.778;9.986;2023-06-24T07:25:41;19.20;99.90
5588;DHT22;2816;49.778;9.986;2023-06-24T07:28:09;19.30;99.90
5588;DHT22;2816;49.778;9.986;2023-06-24T07:30:36;19.30;99.90
5588;DHT22;2816;49.778;9.986;2023-06-24T07:33:03;19.40;99.90
5588;DHT22;2816;49.778;9.986;2023-06-24T07:35:31;19.60;99.90
5588;DHT22;2816;49.778;9.986;2023-06-24T07:37:58;19.60;99.90
5588;DHT22;2816;49.778;9.986;2023-06-24T07:40:24;19.70;99.90
5588;DHT22;2816;49.778;9.986;2023-06-24T07:42:53;19.70;99.90
5588;DHT22;2816;49.778;9.986;2023-06-24T07:45:21;19.80;99.90
5588;DHT22;2816;49.778;9.986;2023-06-24T07:47:49;19.80;99.90
5588;DHT22;2816;49.778;9.986;2023-06-24T07:50:16;19.90;99.90
5588;DHT22;2816;49.778;9.986;2023-06-24T07:52:42;20.00;99.90
5588;DHT22;2816;49.778;9.986;2023-06-24T07:55:10;20.20;99.90
5588;DHT22;2816;49.778;9.986;2023-06-24T07:57:37;20.30;99.90
5588;DHT22;2816;49.778;9.986;2023-06-24T08:00:07;20.30;99.90
5588;DHT22;2816;49.778;9.986;2023-06-24T08:02:36;20.30;99.90
5588;DHT22;2816;49.778;9.986;2023-06-24T08:05:03;20.30;99.90
5588;DHT22;2816;49.778;9.986;2023-06-24T08:07:30;20.50;99.90
5588;DHT22;2816;49.778;9.986;2023-06-24T08:09:57;20.50;99.90
5588;DHT22;2816;49.778;9.986;2023-06-24T08:12:24;20.60;99.90
5588;DHT22;2816;49.778;9.986;2023-06-24T08:14:51;20.70;99.90
5588;DHT22;2816;49.778;9.986;2023-06-24T08:17:18;20.80;99.90
5588;DHT22;2816;49.778;9.986;2023-06-24T08:19:46;20.80;99.90
5588;DHT22;2816;49.778;9.986;2023-06-24T08:22:13;20.90;99.90
5588;DHT22;2816;49.778;9.986;2023-06-24T08:24:40;21.00;99.90
5588;DHT22;2816;49.778;9.986;2023-06-24T08:27:07;21.00;99.90
5588;DHT22;2816;49.778;9.986;2023-06-24T08:29:35;21.10;99.90
5588;DHT22;2816;49.778;9.986;2023-06-24T08:32:03;21.30;99.90
5588;DHT22;2816;49.778;9.986;2023-06-24T08:34:32;21.50;99.90
5588;DHT22;2816;49.778;9.986;2023-06-24T08:37:00;21.50;99.90
5588;DHT22;2816;49.778;9.986;2023-06-24T08:39:27;21.70;99.90
5588;DHT22;2816;49.778;9.986;2023-06-24T08:41:54;21.80;99.90
5588;DHT22;2816;49.778;9.986;2023-06-24T08:44:21;21.90;99.90
5588;DHT22;2816;49.778;9.986;2023-06-24T08:46:48;21.90;99.90
5588;DHT22;2816;49.778;9.986;2023-06-24T08:49:24;21.90;99.90
5588;DHT22;2816;49.778;9.986;2023-06-24T08:51:57;22.00;99.90
5588;DHT22;2816;49.778;9.986;2023-06-24T08:54:28;22.10;99.90
5588;DHT22;2816;49.778;9.986;2023-06-24T08:56:55;22.00;99.90
5588;DHT22;2816;49.778;9.986;2023-06-24T08:59:22;22.20;99.90
5588;DHT22;2816;49.778;9.986;2023-06-24T09:01:50;22.20;99.90
5588;DHT22;2816;49.778;9.986;2023-06-24T09:04:16;22.30;99.90
5588;DHT22;2816;49.778;9.986;2023-06-24T09:06:43;22.30;99.90
5588;DHT22;2816;49.778;9.986;2023-06-24T09:09:17;22.40;99.90
5588;DHT22;2816;49.778;9.986;2023-06-24T09:11:52;22.70;99.90
5588;DHT22;2816;49.778;9.986;2023-06-24T09:14:20;22.80;99.90
5588;DHT22;2816;49.778;9.986;2023-06-24T09:16:54;22.90;99.90
5588;DHT22;2816;49.778;9.986;2023-06-24T09:19:22;22.80;99.90
5588;DHT22;2816;49.778;9.986;2023-06-24T09:21:49;22.80;99.90
5588;DHT22;2816;49.778;9.986;2023-06-24T09:24:17;22.80;99.90
5588;DHT22;2816;49.778;9.986;2023-06-24T09:26:44;22.80;99.90
5588;DHT22;2816;49.778;9.986;2023-06-24T09:29:13;22.90;99.90
5588;DHT22;2816;49.778;9.986;2023-06-24T09:31:48;23.00;99.60
5588;DHT22;2816;49.778;9.986;2023-06-24T09:34:15;23.00;99.30
5588;DHT22;2816;49.778;9.986;2023-06-24T09:36:43;23.10;99.90
5588;DHT22;2816;49.778;9.986;2023-06-24T09:39:10;23.00;98.60
5588;DHT22;2816;49.778;9.986;2023-06-24T09:41:40;23.00;98.50
5588;DHT22;2816;49.778;9.986;2023-06-24T09:44:08;23.10;99.30
5588;DHT22;2816;49.778;9.986;2023-06-24T09:46:38;23.30;99.30
5588;DHT22;2816;49.778;9.986;2023-06-24T09:49:07;23.50;98.20
5588;DHT22;2816;49.778;9.986;2023-06-24T09:51:37;23.50;98.30
5588;DHT22;2816;49.778;9.986;2023-06-24T09:54:06;23.70;98.60
5588;DHT22;2816;49.778;9.986;2023-06-24T09:56:35;23.90;97.70
5588;DHT22;2816;49.778;9.986;2023-06-24T09:59:03;24.20;99.00
5588;DHT22;2816;49.778;9.986;2023-06-24T10:01:32;24.30;97.30
5588;DHT22;2816;49.778;9.986;2023-06-24T10:04:04;24.00;97.50
5588;DHT22;2816;49.778;9.986;2023-06-24T10:06:31;24.00;97.40
5588;DHT22;2816;49.778;9.986;2023-06-24T10:08:59;24.20;97.00
5588;DHT22;2816;49.778;9.986;2023-06-24T10:11:26;24.30;97.50
5588;DHT22;2816;49.778;9.986;2023-06-24T10:13:54;24.40;97.10
5588;DHT22;2816;49.778;9.986;2023-06-24T10:16:21;24.20;95.70
5588;DHT22;2816;49.778;9.986;2023-06-24T10:18:49;24.20;96.10
5588;DHT22;2816;49.778;9.986;2023-06-24T10:21:17;24.30;96.00
5588;DHT22;2816;49.778;9.986;2023-06-24T10:23:52;24.30;97.60
5588;DHT22;2816;49.778;9.986;2023-06-24T10:26:25;24.60;95.20
5588;DHT22;2816;49.778;9.986;2023-06-24T10:29:11;24.60;94.30
5588;DHT22;2816;49.778;9.986;2023-06-24T10:31:53;24.90;94.00
5588;DHT22;2816;49.778;9.986;2023-06-24T10:34:33;25.00;94.90
5588;DHT22;2816;49.778;9.986;2023-06-24T10:37:03;25.30;93.90
5588;DHT22;2816;49.778;9.986;2023-06-24T10:39:47;25.20;94.00
5588;DHT22;2816;49.778;9.986;2023-06-24T10:42:31;25.40;93.90
5588;DHT22;2816;49.778;9.986;2023-06-24T10:45:00;25.70;94.00
5588;DHT22;2816;49.778;9.986;2023-06-24T10:47:28;26.20;92.80
5588;DHT22;2816;49.778;9.986;2023-06-24T10:49:55;26.20;93.20
5588;DHT22;2816;49.778;9.986;2023-06-24T10:52:24;26.30;91.90
5588;DHT22;2816;49.778;9.986;2023-06-24T10:54:52;26.80;91.70
5588;DHT22;2816;49.778;9.986;2023-06-24T10:57:22;26.80;90.50
5588;DHT22;2816;49.778;9.986;2023-06-24T10:59:50;26.80;90.00
5588;DHT22;2816;49.778;9.986;2023-06-24T11:02:18;26.50;90.70
5588;DHT22;2816;49.778;9.986;2023-06-24T11:04:46;26.40;91.30
5588;DHT22;2816;49.778;9.986;2023-06-24T11:07:13;25.60;91.80
5588;DHT22;2816;49.778;9.986;2023-06-24T11:09:42;25.40;91.80
5588;DHT22;2816;49.778;9.986;2023-06-24T11:12:09;25.60;93.20
5588;DHT22;2816;49.778;9.986;2023-06-24T11:14:38;25.70;91.70
5588;DHT22;2816;49.778;9.986;2023-06-24T11:17:05;25.90;92.10
5588;DHT22;2816;49.778;9.986;2023-06-24T11:19:33;25.80;92.30
5588;DHT22;2816;49.778;9.986;2023-06-24T11:22:01;25.80;93.50
5588;DHT22;2816;49.778;9.986;2023-06-24T11:24:28;25.90;91.70
5588;DHT22;2816;49.778;9.986;2023-06-24T11:26:58;26.10;91.30
5588;DHT22;2816;49.778;9.986;2023-06-24T11:29:28;26.10;91.00
5588;DHT22;2816;49.778;9.986;2023-06-24T11:31:55;26.00;92.00
5588;DHT22;2816;49.778;9.986;2023-06-24T11:34:22;25.70;90.30
5588;DHT22;2816;49.778;9.986;2023-06-24T11:36:49;25.60;91.40
5588;DHT22;2816;49.778;9.986;2023-06-24T11:39:24;25.60;91.40
5588;DHT22;2816;49.778;9.986;2023-06-24T11:41:51;25.80;91.70
5588;DHT22;2816;49.778;9.986;2023-06-24T11:44:20;26.00;91.60
5588;DHT22;2816;49.778;9.986;2023-06-24T11:46:47;25.60;91.60
5588;DHT22;2816;49.778;9.986;2023-06-24T11:49:15;25.40;91.90
5588;DHT22;2816;49.778;9.986;2023-06-24T11:51:49;25.40;92.20
5588;DHT22;2816;49.778;9.986;2023-06-24T11:54:17;24.90;91.60
5588;DHT22;2816;49.778;9.986;2023-06-24T11:56:50;24.90;91.40
5588;DHT22;2816;49.778;9.986;2023-06-24T11:59:18;24.90;92.10
5588;DHT22;2816;49.778;9.986;2023-06-24T12:01:52;24.90;91.40
5588;DHT22;2816;49.778;9.986;2023-06-24T12:04:20;25.00;91.70
5588;DHT22;2816;49.778;9.986;2023-06-24T12:06:47;25.10;91.80
5588;DHT22;2816;49.778;9.986;2023-06-24T12:09:14;24.90;91.40
5588;DHT22;2816;49.778;9.986;2023-06-24T12:11:42;24.90;92.40
5588;DHT22;2816;49.778;9.986;2023-06-24T12:14:09;25.00;92.70
5588;DHT22;2816;49.778;9.986;2023-06-24T12:16:38;25.00;91.70
5588;DHT22;2816;49.778;9.986;2023-06-24T12:19:06;25.00;92.80
5588;DHT22;2816;49.778;9.986;2023-06-24T12:21:33;25.20;92.90
5588;DHT22;2816;49.778;9.986;2023-06-24T12:24:00;25.40;92.60
5588;DHT22;2816;49.778;9.986;2023-06-24T12:26:27;25.60;90.30
5588;DHT22;2816;49.778;9.986;2023-06-24T12:28:54;26.00;91.50
5588;DHT22;2816;49.778;9.986;2023-06-24T12:31:22;26.20;91.50
5588;DHT22;2816;49.778;9.986;2023-06-24T12:33:50;26.40;90.10
5588;DHT22;2816;49.778;9.986;2023-06-24T12:36:18;26.80;91.30
5588;DHT22;2816;49.778;9.986;2023-06-24T12:38:46;26.90;89.60
5588;DHT22;2816;49.778;9.986;2023-06-24T12:41:13;26.80;89.00
5588;DHT22;2816;49.778;9.986;2023-06-24T12:43:40;26.80;87.90
5588;DHT22;2816;49.778;9.986;2023-06-24T12:46:07;26.60;88.80
5588;DHT22;2816;49.778;9.986;2023-06-24T12:48:34;27.10;90.00
5588;DHT22;2816;49.778;9.986;2023-06-24T12:51:01;27.40;90.10
5588;DHT22;2816;49.778;9.986;2023-06-24T12:53:29;27.50;88.90
5588;DHT22;2816;49.778;9.986;2023-06-24T12:55:56;27.70;90.30
5588;DHT22;2816;49.778;9.986;2023-06-24T12:58:24;27.60;88.20
5588;DHT22;2816;49.778;9.986;2023-06-24T13:00:51;27.50;86.00
5588;DHT22;2816;49.778;9.986;2023-06-24T13:03:18;27.40;87.30
5588;DHT22;2816;49.778;9.986;2023-06-24T13:05:45;27.20;87.40
5588;DHT22;2816;49.778;9.986;2023-06-24T13:08:12;27.20;88.10
5588;DHT22;2816;49.778;9.986;2023-06-24T13:10:41;27.40;88.30
5588;DHT22;2816;49.778;9.986;2023-06-24T13:13:07;27.20;87.30
5588;DHT22;2816;49.778;9.986;2023-06-24T13:15:34;27.30;87.60
5588;DHT22;2816;49.778;9.986;2023-06-24T13:18:01;27.00;86.00
5588;DHT22;2816;49.778;9.986;2023-06-24T13:20:29;27.00;87.50
5588;DHT22;2816;49.778;9.986;2023-06-24T13:22:56;27.00;85.60
5588;DHT22;2816;49.778;9.986;2023-06-24T13:25:23;26.70;86.70
5588;DHT22;2816;49.778;9.986;2023-06-24T13:27:51;26.70;85.10
5588;DHT22;2816;49.778;9.986;2023-06-24T13:30:18;26.90;85.30
5588;DHT22;2816;49.778;9.986;2023-06-24T13:32:45;27.00;87.30
5588;DHT22;2816;49.778;9.986;2023-06-24T13:35:12;27.10;86.70
5588;DHT22;2816;49.778;9.986;2023-06-24T13:37:39;27.10;85.20
5588;DHT22;2816;49.778;9.986;2023-06-24T13:40:07;26.90;84.70
5588;DHT22;2816;49.778;9.986;2023-06-24T13:42:34;26.70;89.00
5588;DHT22;2816;49.778;9.986;2023-06-24T13:45:04;26.90;86.60
5588;DHT22;2816;49.778;9.986;2023-06-24T13:47:31;27.30;84.40
5588;DHT22;2816;49.778;9.986;2023-06-24T13:49:58;27.20;88.10
5588;DHT22;2816;49.778;9.986;2023-06-24T13:52:25;27.30;85.80
5588;DHT22;2816;49.778;9.986;2023-06-24T13:54:52;27.80;85.20
5588;DHT22;2816;49.778;9.986;2023-06-24T13:57:19;28.10;83.60
5588;DHT22;2816;49.778;9.986;2023-06-24T13:59:46;27.80;81.10
5588;DHT22;2816;49.778;9.986;2023-06-24T14:02:15;28.20;80.10
5588;DHT22;2816;49.778;9.986;2023-06-24T14:04:42;28.40;81.30
5588;DHT22;2816;49.778;9.986;2023-06-24T14:07:09;28.80;81.80
5588;DHT22;2816;49.778;9.986;2023-06-24T14:09:37;28.70;79.60
5588;DHT22;2816;49.778;9.986;2023-06-24T14:12:05;28.90;79.50
5588;DHT22;2816;49.778;9.986;2023-06-24T14:14:34;28.40;79.50
5588;DHT22;2816;49.778;9.986;2023-06-24T14:17:01;28.00;80.40
5588;DHT22;2816;49.778;9.986;2023-06-24T14:19:29;27.70;80.80
5588;DHT22;2816;49.778;9.986;2023-06-24T14:21:56;27.60;82.50
5588;DHT22;2816;49.778;9.986;2023-06-24T14:24:24;27.40;83.30
5588;DHT22;2816;49.778;9.986;2023-06-24T14:26:51;27.10;82.80
5588;DHT22;2816;49.778;9.986;2023-06-24T14:29:18;26.90;83.50
5588;DHT22;2816;49.778;9.986;2023-06-24T14:31:45;26.90;83.70
5588;DHT22;2816;49.778;9.986;2023-06-24T14:34:12;26.90;84.30
5588;DHT22;2816;49.778;9.986;2023-06-24T14:36:40;26.70;83.70
5588;DHT22;2816;49.778;9.986;2023-06-24T14:39:07;26.60;82.80
5588;DHT22;2816;49.778;9.986;2023-06-24T14:41:34;26.60;83.30
5588;DHT22;2816;49.778;9.986;2023-06-24T14:44:01;26.70;84.80
5588;DHT22;2816;49.778;9.986;2023-06-24T14:46:28;27.00;83.80
5588;DHT22;2816;49.778;9.986;2023-06-24T14:48:55;27.10;83.20
5588;DHT22;2816;49.778;9.986;2023-06-24T14:51:23;27.40;82.50
5588;DHT22;2816;49.778;9.986;2023-06-24T14:53:52;27.70;84.40
5588;DHT22;2816;49.778;9.986;2023-06-24T14:56:18;27.70;81.40
5588;DHT22;2816;49.778;9.986;2023-06-24T14:58:45;27.80;82.10
5588;DHT22;2816;49.778;9.986;2023-06-24T15:01:12;28.00;81.40
5588;DHT22;2816;49.778;9.986;2023-06-24T15:03:39;27.90;81.50
5588;DHT22;2816;49.778;9.986;2023-06-24T15:06:06;28.00;83.20
5588;DHT22;2816;49.778;9.986;2023-06-24T15:08:33;28.10;81.00
5588;DHT22;2816;49.778;9.986;2023-06-24T15:11:01;28.00;80.50
5588;DHT22;2816;49.778;9.986;2023-06-24T15:13:28;27.80;80.00
5588;DHT22;2816;49.778;9.986;2023-06-24T15:15:55;27.70;80.60
5588;DHT22;2816;49.778;9.986;2023-06-24T15:18:22;27.40;79.70
5588;DHT22;2816;49.778;9.986;2023-06-24T15:20:49;27.20;81.70
5588;DHT22;2816;49.778;9.986;2023-06-24T15:23:16;27.00;81.80
5588;DHT22;2816;49.778;9.986;2023-06-24T15:25:43;27.00;81.40
5588;DHT22;2816;49.778;9.986;2023-06-24T15:28:11;27.10;81.60
5588;DHT22;2816;49.778;9.986;2023-06-24T15:30:38;26.70;83.00
5588;DHT22;2816;49.778;9.986;2023-06-24T15:33:05;26.70;82.50
5588;DHT22;2816;49.778;9.986;2023-06-24T15:35:32;26.90;82.90
5588;DHT22;2816;49.778;9.986;2023-06-24T15:37:59;27.00;82.60
5588;DHT22;2816;49.778;9.986;2023-06-24T15:40:26;27.00;82.90
5588;DHT22;2816;49.778;9.986;2023-06-24T15:42:52;27.00;84.00
5588;DHT22;2816;49.778;9.986;2023-06-24T15:45:21;26.70;84.50
5588;DHT22;2816;49.778;9.986;2023-06-24T15:47:48;26.60;83.90
5588;DHT22;2816;49.778;9.986;2023-06-24T15:50:15;26.50;83.90
5588;DHT22;2816;49.778;9.986;2023-06-24T15:52:42;26.50;84.30
5588;DHT22;2816;49.778;9.986;2023-06-24T15:55:09;26.60;84.00
5588;DHT22;2816;49.778;9.986;2023-06-24T15:57:36;26.80;83.10
5588;DHT22;2816;49.778;9.986;2023-06-24T16:00:03;26.80;83.00
5588;DHT22;2816;49.778;9.986;2023-06-24T16:02:32;26.90;82.90
5588;DHT22;2816;49.778;9.986;2023-06-24T16:04:59;26.80;83.10
5588;DHT22;2816;49.778;9.986;2023-06-24T16:07:30;26.70;83.20